Terminal Aerodrome Forecast
Issued by NWS

Home | Current Version | Previous Version | Text Only | Print | Product List | Glossary On
Versions: 1 2 3 4 5 6 7 8 9 10 11 12 13 14
000
FTUS43 KMQT 221739 AAA
TAFSAW
TAF AMD
KSAW 221739Z 2218/2318 20006KT P6SM BKN035
      TEMPO 2218/2220 BKN030
     FM230100 00000KT P6SM VCTS BKN040CB
     FM230300 14003KT P6SM -SHRA OVC030
     FM230700 00000KT 5SM BR VCSH OVC010
     FM230900 00000KT 4SM BR VCSH OVC003
     FM231400 35004KT P6SM OVC006=

USA.gov is the U.S. government's official web portal to all federal, state and local government web resources and services.